createdAt,value
2023-01-23T00:00:19.974Z,30.83
2023-01-23T00:02:48.880Z,26.27
2023-01-23T00:05:17.757Z,28.33
2023-01-23T00:07:46.601Z,30.57
2023-01-23T00:10:17.281Z,30.00
2023-01-23T00:12:49.419Z,30.80
2023-01-23T00:15:18.612Z,30.63
2023-01-23T00:17:48.502Z,31.63
2023-01-23T00:20:17.766Z,33.10
2023-01-23T00:22:46.884Z,32.60
2023-01-23T00:25:17.247Z,30.03
2023-01-23T00:27:45.962Z,30.43
2023-01-23T00:30:16.313Z,30.83
2023-01-23T00:32:45.041Z,33.83
2023-01-23T00:35:14.073Z,33.27
2023-01-23T00:37:42.916Z,32.53
2023-01-23T00:40:13.600Z,32.50
2023-01-23T00:42:43.810Z,31.83
2023-01-23T00:45:13.668Z,32.70
2023-01-23T00:47:42.530Z,35.40
2023-01-23T00:50:12.988Z,32.53
2023-01-23T00:52:41.877Z,36.70
2023-01-23T00:55:11.969Z,32.03
2023-01-23T00:57:42.235Z,33.90
2023-01-23T01:00:12.875Z,31.03
2023-01-23T01:02:41.707Z,30.63
2023-01-23T01:05:11.158Z,30.10
2023-01-23T01:07:39.939Z,27.97
2023-01-23T01:10:09.936Z,29.97
2023-01-23T01:12:39.030Z,25.73
2023-01-23T01:15:12.675Z,27.97
2023-01-23T01:17:42.112Z,27.57
2023-01-23T01:20:12.800Z,28.50
2023-01-23T01:22:41.581Z,28.13
2023-01-23T01:25:11.294Z,28.53
2023-01-23T01:27:40.044Z,27.73
2023-01-23T01:30:12.032Z,28.77
2023-01-23T01:32:42.865Z,29.87
2023-01-23T01:35:12.748Z,26.97
2023-01-23T01:37:43.292Z,27.47
2023-01-23T01:40:16.934Z,25.90
2023-01-23T01:42:48.555Z,25.00
2023-01-23T01:46:15.752Z,26.37
2023-01-23T01:48:52.176Z,26.63
2023-01-23T01:51:28.081Z,27.20
2023-01-23T01:54:07.152Z,25.90
2023-01-23T01:56:42.616Z,29.00
2023-01-23T01:59:13.173Z,29.10
2023-01-23T02:01:46.084Z,30.23
2023-01-23T02:04:16.912Z,27.73
2023-01-23T02:06:45.952Z,27.43
2023-01-23T02:09:24.653Z,26.27
2023-01-23T02:11:54.310Z,27.00
2023-01-23T02:14:25.859Z,29.80
2023-01-23T02:17:00.087Z,31.00
2023-01-23T02:19:54.898Z,25.87
2023-01-23T02:22:41.899Z,25.97
2023-01-23T02:25:23.870Z,27.30
2023-01-23T02:27:54.169Z,26.63
2023-01-23T02:30:23.498Z,27.00
2023-01-23T02:32:52.235Z,26.73
2023-01-23T02:35:28.165Z,26.37
2023-01-23T02:38:02.734Z,25.57
2023-01-23T02:40:37.655Z,22.27
2023-01-23T02:43:12.121Z,22.70
2023-01-23T02:45:41.119Z,22.27
2023-01-23T02:48:10.205Z,18.17
2023-01-23T02:50:39.733Z,16.93
2023-01-23T02:53:08.570Z,13.67
2023-01-23T02:55:39.466Z,15.43
2023-01-23T02:58:26.788Z,13.77
2023-01-23T03:00:55.613Z,15.17
2023-01-23T03:03:24.459Z,16.03
2023-01-23T03:05:54.391Z,17.53
2023-01-23T03:08:23.401Z,18.97
2023-01-23T03:10:52.110Z,15.43
2023-01-23T03:13:22.255Z,18.50
2023-01-23T03:15:53.743Z,17.47
2023-01-23T03:18:22.497Z,17.60
2023-01-23T03:20:51.517Z,14.87
2023-01-23T03:23:20.376Z,18.33
2023-01-23T03:25:49.909Z,20.47
2023-01-23T03:28:32.393Z,17.77
2023-01-23T03:31:02.583Z,16.67
2023-01-23T03:33:31.327Z,16.47
2023-01-23T03:36:01.220Z,16.80
2023-01-23T03:38:29.945Z,17.63
2023-01-23T03:41:16.245Z,14.50
2023-01-23T03:43:45.101Z,16.27
2023-01-23T03:46:15.542Z,16.83
2023-01-23T03:48:44.311Z,17.27
2023-01-23T03:51:13.104Z,19.80
2023-01-23T03:53:42.662Z,19.17
2023-01-23T03:56:11.737Z,20.40
2023-01-23T03:58:40.572Z,17.20
2023-01-23T04:01:10.963Z,19.27
2023-01-23T04:03:41.151Z,17.97
2023-01-23T04:06:10.080Z,17.40
2023-01-23T04:08:38.817Z,18.23
2023-01-23T04:11:10.436Z,17.20
2023-01-23T04:13:40.289Z,18.23
2023-01-23T04:16:09.652Z,17.10
2023-01-23T04:18:38.504Z,20.23
2023-01-23T04:21:08.788Z,17.60
2023-01-23T04:23:38.062Z,18.27
2023-01-23T04:26:06.986Z,21.03
2023-01-23T04:28:35.847Z,19.80
2023-01-23T04:31:04.959Z,20.23
2023-01-23T04:33:33.883Z,18.60
2023-01-23T04:36:06.323Z,18.87
2023-01-23T04:38:36.761Z,19.80
2023-01-23T04:41:06.135Z,32.67
2023-01-23T04:43:35.959Z,18.43
2023-01-23T04:46:05.021Z,27.33
2023-01-23T04:48:33.780Z,19.47
2023-01-23T04:51:02.600Z,19.47
2023-01-23T04:53:31.422Z,18.10
2023-01-23T04:56:02.005Z,19.10
2023-01-23T04:58:30.888Z,18.33
2023-01-23T05:01:04.401Z,15.43
2023-01-23T05:03:34.935Z,18.83
2023-01-23T05:06:03.862Z,17.07
2023-01-23T05:08:32.699Z,17.77
2023-01-23T05:11:02.901Z,16.63
2023-01-23T05:13:31.679Z,17.00
2023-01-23T05:16:00.487Z,19.00
2023-01-23T05:18:29.296Z,21.27
2023-01-23T05:20:58.067Z,19.30
2023-01-23T05:23:27.067Z,17.90
2023-01-23T05:25:55.826Z,17.27
2023-01-23T05:28:25.998Z,25.17
2023-01-23T05:30:54.895Z,18.20
2023-01-23T05:33:23.850Z,17.33
2023-01-23T05:35:52.561Z,17.07
2023-01-23T05:38:21.591Z,15.93
2023-01-23T05:40:50.954Z,16.90
2023-01-23T05:43:22.505Z,16.77
2023-01-23T05:45:52.726Z,20.30
2023-01-23T05:48:22.026Z,20.13
2023-01-23T05:50:50.776Z,18.27
2023-01-23T05:53:19.787Z,36.67
2023-01-23T05:55:49.880Z,19.67
2023-01-23T05:58:18.722Z,19.83
2023-01-23T06:00:47.472Z,21.73
2023-01-23T06:03:17.755Z,20.20
2023-01-23T06:05:46.562Z,16.67
2023-01-23T06:08:15.304Z,17.70
2023-01-23T06:10:44.119Z,16.90
2023-01-23T06:13:13.188Z,16.37
2023-01-23T06:15:42.117Z,14.97
2023-01-23T06:18:11.023Z,14.67
2023-01-23T06:20:41.145Z,14.63
2023-01-23T06:23:09.905Z,14.73
2023-01-23T06:25:38.927Z,16.07
2023-01-23T06:28:07.936Z,15.37
2023-01-23T06:30:38.168Z,16.80
2023-01-23T06:33:07.015Z,16.77
2023-01-23T06:35:35.813Z,14.93
2023-01-23T06:38:06.052Z,14.97
2023-01-23T06:40:34.831Z,16.57
2023-01-23T06:43:03.712Z,18.03
2023-01-23T06:45:32.829Z,14.40
2023-01-23T06:48:01.738Z,16.50
2023-01-23T06:50:30.493Z,17.40
2023-01-23T06:52:59.268Z,19.20
2023-01-23T06:55:29.449Z,16.47
2023-01-23T06:57:58.233Z,14.63
2023-01-23T07:00:28.251Z,16.70
2023-01-23T07:02:59.300Z,16.80
2023-01-23T07:05:28.317Z,16.63
2023-01-23T07:07:57.399Z,17.17
2023-01-23T07:10:26.737Z,19.60
2023-01-23T07:12:57.027Z,19.00
2023-01-23T07:15:27.629Z,19.57
2023-01-23T07:17:56.385Z,19.57
2023-01-23T07:20:27.746Z,19.57
2023-01-23T07:22:56.908Z,20.93
2023-01-23T07:25:27.300Z,21.30
2023-01-23T07:27:57.545Z,19.97
2023-01-23T07:30:27.020Z,20.30
2023-01-23T07:32:56.409Z,18.93
2023-01-23T07:35:26.538Z,21.13
2023-01-23T07:37:55.553Z,20.97
2023-01-23T07:40:24.461Z,20.17
2023-01-23T07:42:53.409Z,21.67
2023-01-23T07:45:23.681Z,21.83
2023-01-23T07:47:52.618Z,22.70
2023-01-23T07:50:21.807Z,19.70
2023-01-23T07:52:50.709Z,22.63
2023-01-23T07:55:19.709Z,24.73
2023-01-23T07:57:48.777Z,24.23
2023-01-23T08:00:19.227Z,24.30
2023-01-23T08:02:50.180Z,25.77
2023-01-23T08:05:19.174Z,24.40
2023-01-23T08:07:47.964Z,21.33
2023-01-23T08:10:17.217Z,23.30
2023-01-23T08:12:46.128Z,23.60
2023-01-23T08:15:15.092Z,20.37
2023-01-23T08:17:43.943Z,24.00
2023-01-23T08:20:14.753Z,25.97
2023-01-23T08:22:45.226Z,26.20
2023-01-23T08:25:14.135Z,22.30
2023-01-23T08:27:42.946Z,23.23
2023-01-23T08:30:14.043Z,25.73
2023-01-23T08:32:42.804Z,24.23
2023-01-23T08:35:13.331Z,24.00
2023-01-23T08:37:42.419Z,22.93
2023-01-23T08:40:13.305Z,24.13
2023-01-23T08:42:42.210Z,20.80
2023-01-23T08:45:12.200Z,21.20
2023-01-23T08:47:41.055Z,20.57
2023-01-23T08:50:13.572Z,21.57
2023-01-23T08:52:42.340Z,19.20
2023-01-23T08:55:12.973Z,21.40
2023-01-23T08:57:41.966Z,20.20
2023-01-23T09:00:13.128Z,21.93
2023-01-23T09:02:42.394Z,22.50
2023-01-23T09:05:11.778Z,18.87
2023-01-23T09:07:42.069Z,21.37
2023-01-23T09:10:12.799Z,22.03
2023-01-23T09:12:42.897Z,20.40
2023-01-23T09:15:12.678Z,20.47
2023-01-23T09:17:41.448Z,20.43
2023-01-23T09:20:12.466Z,19.10
2023-01-23T09:22:42.731Z,19.73
2023-01-23T09:25:12.968Z,21.43
2023-01-23T09:27:41.800Z,20.03
2023-01-23T09:30:12.410Z,21.73
2023-01-23T09:32:41.203Z,23.23
2023-01-23T09:35:11.641Z,20.40
2023-01-23T09:37:59.261Z,18.87
2023-01-23T09:40:32.972Z,20.37
2023-01-23T09:43:13.526Z,18.10
2023-01-23T09:45:48.485Z,19.40
2023-01-23T09:48:29.193Z,18.17
2023-01-23T09:51:05.818Z,18.87
2023-01-23T09:53:40.846Z,18.73
2023-01-23T09:56:23.779Z,18.90
2023-01-23T09:59:03.412Z,17.90
2023-01-23T10:01:35.836Z,20.00
2023-01-23T10:04:06.449Z,18.57
2023-01-23T10:07:07.009Z,18.80
2023-01-23T10:10:00.410Z,18.87
2023-01-23T10:12:45.551Z,17.47
2023-01-23T10:15:37.665Z,17.80
2023-01-23T10:18:24.752Z,17.47
2023-01-23T10:21:13.743Z,16.90
2023-01-23T10:23:58.826Z,17.27
2023-01-23T10:26:35.918Z,18.97
2023-01-23T10:29:15.896Z,17.73
2023-01-23T10:31:51.106Z,18.40
2023-01-23T10:34:26.378Z,20.10
2023-01-23T10:37:13.156Z,18.60
2023-01-23T10:39:51.258Z,19.00
2023-01-23T10:42:24.924Z,18.93
2023-01-23T10:44:54.069Z,15.77
2023-01-23T10:47:33.667Z,19.63
2023-01-23T10:50:04.759Z,19.07
2023-01-23T10:52:37.963Z,16.37
2023-01-23T10:55:28.500Z,17.17
2023-01-23T10:58:03.365Z,17.27
2023-01-23T11:00:37.983Z,18.07
2023-01-23T11:03:31.263Z,19.40
2023-01-23T11:06:06.981Z,17.13
2023-01-23T11:08:38.953Z,17.55
2023-01-23T11:11:25.847Z,17.15
2023-01-23T11:14:09.542Z,16.27
2023-01-23T11:16:38.956Z,18.17
2023-01-23T11:19:24.410Z,16.65
2023-01-23T11:21:57.846Z,18.23
2023-01-23T11:24:41.202Z,15.40
2023-01-23T11:27:24.428Z,15.82
2023-01-23T11:30:28.434Z,16.08
2023-01-23T11:33:03.079Z,17.73
2023-01-23T11:35:57.752Z,17.73
2023-01-23T11:38:33.283Z,17.52
2023-01-23T11:41:05.290Z,15.52
2023-01-23T11:43:34.315Z,17.42
2023-01-23T11:46:32.630Z,17.10
2023-01-23T11:49:43.353Z,17.47
2023-01-23T11:52:33.384Z,17.33
2023-01-23T11:55:29.986Z,17.08
2023-01-23T11:58:15.779Z,17.83
2023-01-23T12:00:53.155Z,16.03
2023-01-23T12:04:23.782Z,17.03
2023-01-23T12:07:15.145Z,17.83
2023-01-23T12:09:58.716Z,16.77
2023-01-23T12:12:53.807Z,16.30
2023-01-23T12:15:37.509Z,16.47
2023-01-23T12:18:27.867Z,15.43
2023-01-23T12:21:06.871Z,15.13
2023-01-23T12:23:59.057Z,14.70
2023-01-23T12:26:31.134Z,14.60
2023-01-23T12:29:46.500Z,15.43
2023-01-23T12:32:43.528Z,16.43
2023-01-23T12:35:32.839Z,15.10
2023-01-23T12:38:21.323Z,14.90
2023-01-23T12:40:56.825Z,17.07
2023-01-23T12:43:41.617Z,15.77
2023-01-23T12:46:16.003Z,16.30
2023-01-23T12:48:54.404Z,16.38
2023-01-23T12:51:31.515Z,16.23
2023-01-23T12:54:08.281Z,14.67
2023-01-23T12:56:41.967Z,15.20
2023-01-23T12:59:21.933Z,16.23
2023-01-23T13:02:05.765Z,14.23
2023-01-23T13:04:55.869Z,15.37
2023-01-23T13:07:50.138Z,14.63
2023-01-23T13:11:01.247Z,16.87
2023-01-23T13:13:30.592Z,16.43
2023-01-23T13:16:13.855Z,15.30
2023-01-23T13:19:11.534Z,14.73
2023-01-23T13:21:58.080Z,15.07
2023-01-23T13:25:03.433Z,14.38
2023-01-23T13:27:50.613Z,14.40
2023-01-23T13:30:45.107Z,16.45
2023-01-23T13:33:58.670Z,14.52
2023-01-23T13:36:34.797Z,14.50
2023-01-23T13:39:27.203Z,17.43
2023-01-23T13:42:46.282Z,17.03
2023-01-23T13:45:34.675Z,15.33
2023-01-23T14:20:39.747Z,16.23
2023-01-23T14:23:22.131Z,14.80
2023-01-23T14:25:51.149Z,16.03
2023-01-23T14:28:20.553Z,17.63
2023-01-23T14:31:04.360Z,16.93
2023-01-23T14:33:43.437Z,18.27
2023-01-23T14:36:18.538Z,18.43
2023-01-23T14:38:49.629Z,16.93
2023-01-23T14:41:20.903Z,18.03
2023-01-23T14:43:58.202Z,17.77
2023-01-23T14:46:38.057Z,23.23
2023-01-23T14:49:10.442Z,24.80
2023-01-23T14:51:39.225Z,21.53
2023-01-23T14:54:22.875Z,25.77
2023-01-23T14:56:54.245Z,26.13
2023-01-23T14:59:29.996Z,20.33
2023-01-23T15:02:13.086Z,17.60
2023-01-23T15:04:45.152Z,19.73
2023-01-23T15:07:19.259Z,19.17
2023-01-23T15:09:47.991Z,16.87
2023-01-23T15:12:19.872Z,17.00
2023-01-23T15:14:55.636Z,18.73
2023-01-23T15:17:25.905Z,19.80
2023-01-23T15:19:56.529Z,17.77
2023-01-23T15:22:29.784Z,18.03
2023-01-23T15:24:59.000Z,17.93
2023-01-23T15:27:33.542Z,17.90
2023-01-23T15:30:37.864Z,17.77
2023-01-23T15:33:27.608Z,18.43
2023-01-23T15:36:06.688Z,17.37
2023-01-23T15:38:36.895Z,18.17
2023-01-23T15:41:11.438Z,17.40
2023-01-23T15:43:40.213Z,17.73
2023-01-23T15:46:12.064Z,17.33
2023-01-23T15:48:42.252Z,23.97
2023-01-23T15:51:14.281Z,24.27
2023-01-23T15:53:43.049Z,20.53
2023-01-23T15:56:27.954Z,17.30
2023-01-23T15:58:56.834Z,18.83
2023-01-23T16:01:25.574Z,16.93
2023-01-23T16:03:55.873Z,17.03
2023-01-23T16:06:26.386Z,16.13
2023-01-23T16:09:05.196Z,17.53
2023-01-23T16:11:38.738Z,16.53
2023-01-23T16:14:07.620Z,17.90
2023-01-23T16:16:36.501Z,17.40
2023-01-23T16:19:06.788Z,17.70
2023-01-23T16:21:35.595Z,15.47
2023-01-23T16:24:05.857Z,15.20
2023-01-23T16:26:36.384Z,18.07
2023-01-23T16:29:13.545Z,17.67
2023-01-23T16:31:42.989Z,18.73
2023-01-23T16:34:13.270Z,17.83
2023-01-23T16:36:42.112Z,18.50
2023-01-23T16:39:20.156Z,25.87
2023-01-23T16:41:50.647Z,20.43
2023-01-23T16:44:22.222Z,23.40
2023-01-23T16:46:52.520Z,21.47
2023-01-23T16:49:22.759Z,20.70
2023-01-23T16:51:59.755Z,18.40
2023-01-23T16:54:28.669Z,18.20
2023-01-23T16:56:59.591Z,17.77
2023-01-23T16:59:36.878Z,17.60
2023-01-23T17:02:18.201Z,17.63
2023-01-23T17:04:48.463Z,17.33
2023-01-23T17:07:18.916Z,17.00
2023-01-23T17:09:49.296Z,17.77
2023-01-23T17:12:24.475Z,18.13
2023-01-23T17:14:53.579Z,17.00
2023-01-23T17:17:30.890Z,20.27
2023-01-23T17:20:04.171Z,17.33
2023-01-23T17:22:41.170Z,17.83
2023-01-23T17:25:17.155Z,18.40
2023-01-23T17:27:55.216Z,17.60
2023-01-23T17:30:29.539Z,17.23
2023-01-23T17:32:59.774Z,19.40
2023-01-23T17:35:37.509Z,21.57
2023-01-23T17:38:06.976Z,20.20
2023-01-23T17:40:35.683Z,19.47
2023-01-23T17:43:04.479Z,20.70
2023-01-23T17:45:34.704Z,18.77
2023-01-23T17:48:03.644Z,18.17
2023-01-23T17:50:33.999Z,17.17
2023-01-23T17:53:02.731Z,17.93
2023-01-23T17:55:32.788Z,18.90
2023-01-23T17:58:01.701Z,20.23
2023-01-23T18:00:30.466Z,18.47
2023-01-23T18:03:01.933Z,18.23
2023-01-23T18:05:32.184Z,19.30
2023-01-23T18:08:01.142Z,18.00
2023-01-23T18:10:30.274Z,18.40
2023-01-23T18:13:14.739Z,19.37
2023-01-23T18:15:57.737Z,17.97
2023-01-23T18:18:32.712Z,17.10
2023-01-23T18:21:05.460Z,18.00
2023-01-23T18:23:37.352Z,19.47
2023-01-23T18:26:30.210Z,18.50
2023-01-23T18:29:23.618Z,16.43
2023-01-23T18:32:25.839Z,15.50
2023-01-23T18:35:07.047Z,16.57
2023-01-23T18:37:50.156Z,16.80
2023-01-23T18:40:26.052Z,18.03
2023-01-23T18:43:04.145Z,17.60
2023-01-23T18:45:34.159Z,17.70
2023-01-23T18:48:04.680Z,16.37
2023-01-23T18:50:37.256Z,20.63
2023-01-23T18:53:24.634Z,21.67
2023-01-23T18:56:14.234Z,18.63
2023-01-23T18:59:10.435Z,15.97
2023-01-23T19:01:52.438Z,16.43
2023-01-23T19:04:34.645Z,15.67
2023-01-23T19:07:04.506Z,15.20
2023-01-23T19:09:40.045Z,15.30
2023-01-23T19:12:25.613Z,15.10
2023-01-23T19:15:22.163Z,17.90
2023-01-23T19:18:08.472Z,15.77
2023-01-23T19:20:48.591Z,14.97
2023-01-23T19:23:33.811Z,15.63
2023-01-23T19:26:05.238Z,15.17
2023-01-23T19:28:35.263Z,15.67
2023-01-23T19:31:08.412Z,15.07
2023-01-23T19:33:37.904Z,16.33
2023-01-23T19:36:11.398Z,15.40
2023-01-23T19:38:40.797Z,15.33
2023-01-23T19:41:20.868Z,15.00
2023-01-23T19:43:54.643Z,17.70
2023-01-23T19:46:29.531Z,16.77
2023-01-23T19:48:59.285Z,15.37
2023-01-23T19:51:29.212Z,15.77
2023-01-23T19:53:58.309Z,16.70
2023-01-23T19:56:29.259Z,17.97
2023-01-23T19:58:58.206Z,24.03
2023-01-23T20:01:35.364Z,20.23
2023-01-23T20:04:04.800Z,20.67
2023-01-23T20:06:34.600Z,19.07
2023-01-23T20:09:03.693Z,20.30
2023-01-23T20:11:35.073Z,19.83
2023-01-23T20:14:04.307Z,16.67
2023-01-23T20:16:33.113Z,16.37
2023-01-23T20:19:02.281Z,17.90
2023-01-23T20:21:31.336Z,16.40
2023-01-23T20:24:00.211Z,19.00
2023-01-23T20:26:29.472Z,21.23
2023-01-23T20:28:59.904Z,23.93
2023-01-23T20:31:29.026Z,19.87
2023-01-23T20:33:58.110Z,17.90
2023-01-23T20:36:26.980Z,18.63
2023-01-23T20:38:57.840Z,17.73
2023-01-23T20:41:26.794Z,17.27
2023-01-23T20:43:56.076Z,19.97
2023-01-23T20:46:27.308Z,16.57
2023-01-23T20:48:57.548Z,17.10
2023-01-23T20:51:27.309Z,17.87
2023-01-23T20:53:56.464Z,19.53
2023-01-23T20:56:27.900Z,19.93
2023-01-23T20:59:16.039Z,19.90
2023-01-23T21:02:04.845Z,21.90
2023-01-23T21:04:36.237Z,18.70
2023-01-23T21:07:06.078Z,27.97
2023-01-23T21:09:34.857Z,20.87
2023-01-23T21:12:03.648Z,22.73
2023-01-23T21:14:32.461Z,19.90
2023-01-23T21:17:05.105Z,20.40
2023-01-23T21:19:34.498Z,18.77
2023-01-23T21:22:03.380Z,21.70
2023-01-23T21:24:34.467Z,18.17
2023-01-23T21:27:04.682Z,18.63
2023-01-23T21:29:34.463Z,19.27
2023-01-23T21:32:04.722Z,16.10
2023-01-23T21:34:33.455Z,17.63
2023-01-23T21:37:03.383Z,19.27
2023-01-23T21:39:32.118Z,17.93
2023-01-23T21:42:00.877Z,20.70
2023-01-23T21:44:29.694Z,18.13
2023-01-23T21:46:58.433Z,21.53
2023-01-23T21:49:30.347Z,20.53
2023-01-23T21:51:59.088Z,24.40
2023-01-23T21:54:27.896Z,18.63
2023-01-23T21:56:56.730Z,22.70
2023-01-23T21:59:25.437Z,18.63
2023-01-23T22:01:53.420Z,17.87
2023-01-23T22:04:23.320Z,17.63
2023-01-23T22:06:58.692Z,16.27
2023-01-23T22:09:27.811Z,16.90
2023-01-23T22:11:57.263Z,19.23
2023-01-23T22:14:25.997Z,17.30
2023-01-23T22:16:54.832Z,20.27
2023-01-23T22:19:25.808Z,18.90
2023-01-23T22:21:57.279Z,20.17
2023-01-23T22:24:26.543Z,20.60
2023-01-23T22:26:55.389Z,18.17
2023-01-23T22:29:24.123Z,19.27
2023-01-23T22:31:53.265Z,18.23
2023-01-23T22:34:22.227Z,17.87
2023-01-23T22:36:50.953Z,16.30
2023-01-23T22:39:21.128Z,19.03
2023-01-23T22:41:51.247Z,16.07
2023-01-23T22:44:20.064Z,17.13
2023-01-23T22:46:51.584Z,16.37
2023-01-23T22:49:20.876Z,17.77
2023-01-23T22:51:51.540Z,18.33
2023-01-23T22:54:21.881Z,16.80
2023-01-23T22:56:50.661Z,17.33
2023-01-23T22:59:19.361Z,18.20
2023-01-23T23:01:48.154Z,16.97
2023-01-23T23:04:16.950Z,16.60
2023-01-23T23:06:45.634Z,17.47
2023-01-23T23:09:14.817Z,16.27
2023-01-23T23:11:47.499Z,18.83
2023-01-23T23:14:16.220Z,17.63
2023-01-23T23:16:44.911Z,19.97
2023-01-23T23:19:13.720Z,18.17
2023-01-23T23:21:42.511Z,16.90
2023-01-23T23:24:14.847Z,17.70
2023-01-23T23:26:45.085Z,18.53
2023-01-23T23:29:13.862Z,19.10
2023-01-23T23:31:43.359Z,17.43
2023-01-23T23:34:12.149Z,18.57
2023-01-23T23:36:41.182Z,18.63
2023-01-23T23:39:10.090Z,18.27
2023-01-23T23:41:38.917Z,16.37
2023-01-23T23:44:09.137Z,15.33
2023-01-23T23:46:38.270Z,15.67
2023-01-23T23:49:07.462Z,16.00
2023-01-23T23:51:36.335Z,17.97
2023-01-23T23:54:05.222Z,17.53
2023-01-23T23:56:34.003Z,18.10
2023-01-23T23:59:02.721Z,19.47
